sensor_id;sensor_type;location;lat;lon;timestamp;temperature;humidity
11540;DHT22;5826;54.756;9.192;2023-07-02T00:02:21;16.60;99.90
11540;DHT22;5826;54.756;9.192;2023-07-02T00:04:47;16.60;99.90
11540;DHT22;5826;54.756;9.192;2023-07-02T00:07:13;16.50;99.90
11540;DHT22;5826;54.756;9.192;2023-07-02T00:09:40;16.50;99.90
11540;DHT22;5826;54.756;9.192;2023-07-02T00:12:06;16.50;99.90
11540;DHT22;5826;54.756;9.192;2023-07-02T00:14:31;16.50;99.90
11540;DHT22;5826;54.756;9.192;2023-07-02T00:16:57;16.50;99.90
11540;DHT22;5826;54.756;9.192;2023-07-02T00:19:23;16.50;99.90
11540;DHT22;5826;54.756;9.192;2023-07-02T00:21:48;16.50;99.90
11540;DHT22;5826;54.756;9.192;2023-07-02T00:24:14;16.50;99.90
11540;DHT22;5826;54.756;9.192;2023-07-02T00:26:41;16.50;99.90
11540;DHT22;5826;54.756;9.192;2023-07-02T00:29:08;16.50;99.90
11540;DHT22;5826;54.756;9.192;2023-07-02T00:31:35;16.60;99.90
11540;DHT22;5826;54.756;9.192;2023-07-02T00:34:01;16.50;99.90
11540;DHT22;5826;54.756;9.192;2023-07-02T00:36:27;16.50;99.90
11540;DHT22;5826;54.756;9.192;2023-07-02T00:38:53;16.50;99.90
11540;DHT22;5826;54.756;9.192;2023-07-02T00:41:18;16.50;99.90
11540;DHT22;5826;54.756;9.192;2023-07-02T00:43:44;16.50;99.90
11540;DHT22;5826;54.756;9.192;2023-07-02T00:46:14;16.50;99.90
11540;DHT22;5826;54.756;9.192;2023-07-02T00:48:46;16.50;99.90
11540;DHT22;5826;54.756;9.192;2023-07-02T00:51:14;16.40;99.90
11540;DHT22;5826;54.756;9.192;2023-07-02T00:53:40;16.50;99.90
11540;DHT22;5826;54.756;9.192;2023-07-02T00:56:06;16.40;99.90
11540;DHT22;5826;54.756;9.192;2023-07-02T00:58:34;16.40;99.90
11540;DHT22;5826;54.756;9.192;2023-07-02T01:00:59;16.40;99.90
11540;DHT22;5826;54.756;9.192;2023-07-02T01:03:25;16.30;99.90
11540;DHT22;5826;54.756;9.192;2023-07-02T01:05:50;16.40;99.90
11540;DHT22;5826;54.756;9.192;2023-07-02T01:08:16;16.40;99.90
11540;DHT22;5826;54.756;9.192;2023-07-02T01:10:41;16.30;99.90
11540;DHT22;5826;54.756;9.192;2023-07-02T01:13:15;16.30;99.90
11540;DHT22;5826;54.756;9.192;2023-07-02T01:15:42;16.30;99.90
11540;DHT22;5826;54.756;9.192;2023-07-02T01:18:08;16.30;99.90
11540;DHT22;5826;54.756;9.192;2023-07-02T01:20:35;16.30;99.90
11540;DHT22;5826;54.756;9.192;2023-07-02T01:23:02;16.20;99.90
11540;DHT22;5826;54.756;9.192;2023-07-02T01:25:28;16.20;99.90
11540;DHT22;5826;54.756;9.192;2023-07-02T01:27:55;16.20;99.90
11540;DHT22;5826;54.756;9.192;2023-07-02T01:30:21;16.20;99.90
11540;DHT22;5826;54.756;9.192;2023-07-02T01:32:46;16.20;99.90
11540;DHT22;5826;54.756;9.192;2023-07-02T01:35:12;16.10;99.90
11540;DHT22;5826;54.756;9.192;2023-07-02T01:37:37;16.10;99.90
11540;DHT22;5826;54.756;9.192;2023-07-02T01:40:04;16.10;99.90
11540;DHT22;5826;54.756;9.192;2023-07-02T01:42:34;16.10;99.90
11540;DHT22;5826;54.756;9.192;2023-07-02T01:44:59;16.10;99.90
11540;DHT22;5826;54.756;9.192;2023-07-02T01:47:25;16.00;99.90
11540;DHT22;5826;54.756;9.192;2023-07-02T01:49:50;16.00;99.90
11540;DHT22;5826;54.756;9.192;2023-07-02T01:52:16;16.00;99.90
11540;DHT22;5826;54.756;9.192;2023-07-02T01:54:43;16.00;99.90
11540;DHT22;5826;54.756;9.192;2023-07-02T01:57:09;16.00;99.90
11540;DHT22;5826;54.756;9.192;2023-07-02T01:59:34;15.90;99.90
11540;DHT22;5826;54.756;9.192;2023-07-02T02:02:00;15.90;99.90
11540;DHT22;5826;54.756;9.192;2023-07-02T02:04:25;15.90;99.90
11540;DHT22;5826;54.756;9.192;2023-07-02T02:06:51;15.90;99.90
11540;DHT22;5826;54.756;9.192;2023-07-02T02:09:17;15.90;99.90
11540;DHT22;5826;54.756;9.192;2023-07-02T02:11:45;15.90;99.90
11540;DHT22;5826;54.756;9.192;2023-07-02T02:14:11;15.90;99.90
11540;DHT22;5826;54.756;9.192;2023-07-02T02:16:37;15.90;99.90
11540;DHT22;5826;54.756;9.192;2023-07-02T02:19:03;15.90;99.90
11540;DHT22;5826;54.756;9.192;2023-07-02T02:21:29;15.90;99.90
11540;DHT22;5826;54.756;9.192;2023-07-02T02:23:55;15.90;99.90
11540;DHT22;5826;54.756;9.192;2023-07-02T02:26:21;15.90;99.90
11540;DHT22;5826;54.756;9.192;2023-07-02T02:28:48;15.90;99.90
11540;DHT22;5826;54.756;9.192;2023-07-02T02:31:14;15.90;99.90
11540;DHT22;5826;54.756;9.192;2023-07-02T02:33:40;15.90;99.90
11540;DHT22;5826;54.756;9.192;2023-07-02T02:36:05;15.90;99.90
11540;DHT22;5826;54.756;9.192;2023-07-02T02:38:31;15.90;99.90
11540;DHT22;5826;54.756;9.192;2023-07-02T02:40:56;15.90;99.90
11540;DHT22;5826;54.756;9.192;2023-07-02T02:43:22;15.80;99.90
11540;DHT22;5826;54.756;9.192;2023-07-02T02:45:48;15.80;99.90
11540;DHT22;5826;54.756;9.192;2023-07-02T02:48:13;15.80;99.90
11540;DHT22;5826;54.756;9.192;2023-07-02T02:50:39;15.80;99.90
11540;DHT22;5826;54.756;9.192;2023-07-02T02:53:06;15.80;99.90
11540;DHT22;5826;54.756;9.192;2023-07-02T02:55:32;15.80;99.90
11540;DHT22;5826;54.756;9.192;2023-07-02T02:57:57;15.80;99.90
11540;DHT22;5826;54.756;9.192;2023-07-02T03:00:23;15.80;99.90
11540;DHT22;5826;54.756;9.192;2023-07-02T03:02:48;15.80;99.90
11540;DHT22;5826;54.756;9.192;2023-07-02T03:05:14;15.80;99.90
11540;DHT22;5826;54.756;9.192;2023-07-02T03:07:41;15.80;99.90
11540;DHT22;5826;54.756;9.192;2023-07-02T03:10:07;15.80;99.90
11540;DHT22;5826;54.756;9.192;2023-07-02T03:12:33;15.80;99.90
11540;DHT22;5826;54.756;9.192;2023-07-02T03:14:58;15.80;99.90
11540;DHT22;5826;54.756;9.192;2023-07-02T03:17:24;15.80;99.90
11540;DHT22;5826;54.756;9.192;2023-07-02T03:19:50;15.80;99.90
11540;DHT22;5826;54.756;9.192;2023-07-02T03:22:15;15.70;99.90
11540;DHT22;5826;54.756;9.192;2023-07-02T03:24:41;15.60;99.90
11540;DHT22;5826;54.756;9.192;2023-07-02T03:27:07;15.60;99.90
11540;DHT22;5826;54.756;9.192;2023-07-02T03:29:34;15.50;99.90
11540;DHT22;5826;54.756;9.192;2023-07-02T03:32:00;15.50;99.90
11540;DHT22;5826;54.756;9.192;2023-07-02T03:34:26;15.40;99.90
11540;DHT22;5826;54.756;9.192;2023-07-02T03:36:51;15.30;99.90
11540;DHT22;5826;54.756;9.192;2023-07-02T03:39:17;15.30;99.90
11540;DHT22;5826;54.756;9.192;2023-07-02T03:41:43;15.20;99.90
11540;DHT22;5826;54.756;9.192;2023-07-02T03:44:08;15.20;99.90
11540;DHT22;5826;54.756;9.192;2023-07-02T03:46:34;15.20;99.90
11540;DHT22;5826;54.756;9.192;2023-07-02T03:49:00;15.20;99.90
11540;DHT22;5826;54.756;9.192;2023-07-02T03:51:26;15.20;99.90
11540;DHT22;5826;54.756;9.192;2023-07-02T03:53:51;15.30;99.90
11540;DHT22;5826;54.756;9.192;2023-07-02T03:56:17;15.30;99.90
11540;DHT22;5826;54.756;9.192;2023-07-02T03:58:42;15.30;99.90
11540;DHT22;5826;54.756;9.192;2023-07-02T04:01:08;15.20;99.90
11540;DHT22;5826;54.756;9.192;2023-07-02T04:03:33;15.30;99.90
11540;DHT22;5826;54.756;9.192;2023-07-02T04:05:59;15.30;99.90
11540;DHT22;5826;54.756;9.192;2023-07-02T04:08:25;15.30;99.90
11540;DHT22;5826;54.756;9.192;2023-07-02T04:10:51;15.30;99.90
11540;DHT22;5826;54.756;9.192;2023-07-02T04:13:16;15.30;99.90
11540;DHT22;5826;54.756;9.192;2023-07-02T04:15:42;15.30;99.90
11540;DHT22;5826;54.756;9.192;2023-07-02T04:18:07;15.30;99.90
11540;DHT22;5826;54.756;9.192;2023-07-02T04:20:33;15.40;99.90
11540;DHT22;5826;54.756;9.192;2023-07-02T04:22:59;15.50;99.90
11540;DHT22;5826;54.756;9.192;2023-07-02T04:25:24;15.50;99.90
11540;DHT22;5826;54.756;9.192;2023-07-02T04:27:50;15.60;99.90
11540;DHT22;5826;54.756;9.192;2023-07-02T04:30:16;15.70;99.90
11540;DHT22;5826;54.756;9.192;2023-07-02T04:32:41;15.80;99.90
11540;DHT22;5826;54.756;9.192;2023-07-02T04:35:10;15.90;99.90
11540;DHT22;5826;54.756;9.192;2023-07-02T04:37:36;15.90;99.90
11540;DHT22;5826;54.756;9.192;2023-07-02T04:40:02;15.90;99.90
11540;DHT22;5826;54.756;9.192;2023-07-02T04:42:38;15.90;99.90
11540;DHT22;5826;54.756;9.192;2023-07-02T04:45:04;15.90;99.90
11540;DHT22;5826;54.756;9.192;2023-07-02T04:47:30;15.80;99.90
11540;DHT22;5826;54.756;9.192;2023-07-02T04:49:56;15.70;99.90
11540;DHT22;5826;54.756;9.192;2023-07-02T04:52:22;15.70;99.90
11540;DHT22;5826;54.756;9.192;2023-07-02T04:54:47;15.70;99.90
11540;DHT22;5826;54.756;9.192;2023-07-02T04:57:13;15.80;99.90
11540;DHT22;5826;54.756;9.192;2023-07-02T04:59:41;15.80;99.90
11540;DHT22;5826;54.756;9.192;2023-07-02T05:02:06;15.90;99.90
11540;DHT22;5826;54.756;9.192;2023-07-02T05:04:32;16.00;99.90
11540;DHT22;5826;54.756;9.192;2023-07-02T05:06:59;16.00;99.90
11540;DHT22;5826;54.756;9.192;2023-07-02T05:09:25;16.10;99.90
11540;DHT22;5826;54.756;9.192;2023-07-02T05:11:50;16.10;99.90
11540;DHT22;5826;54.756;9.192;2023-07-02T05:14:15;16.10;99.90
11540;DHT22;5826;54.756;9.192;2023-07-02T05:16:41;16.10;99.90
11540;DHT22;5826;54.756;9.192;2023-07-02T05:19:06;16.10;99.90
11540;DHT22;5826;54.756;9.192;2023-07-02T05:21:32;16.20;99.90
11540;DHT22;5826;54.756;9.192;2023-07-02T05:23:57;16.20;99.90
11540;DHT22;5826;54.756;9.192;2023-07-02T05:26:23;16.20;99.90
11540;DHT22;5826;54.756;9.192;2023-07-02T05:28:48;16.20;99.90
11540;DHT22;5826;54.756;9.192;2023-07-02T05:31:14;16.20;99.90
11540;DHT22;5826;54.756;9.192;2023-07-02T05:33:39;16.20;99.90
11540;DHT22;5826;54.756;9.192;2023-07-02T05:36:05;16.10;99.90
11540;DHT22;5826;54.756;9.192;2023-07-02T05:38:31;16.10;99.90
11540;DHT22;5826;54.756;9.192;2023-07-02T05:40:56;16.10;99.90
11540;DHT22;5826;54.756;9.192;2023-07-02T05:43:22;16.10;99.90
11540;DHT22;5826;54.756;9.192;2023-07-02T05:45:49;16.10;99.90
11540;DHT22;5826;54.756;9.192;2023-07-02T05:48:15;16.20;99.90
11540;DHT22;5826;54.756;9.192;2023-07-02T05:50:40;16.30;99.90
11540;DHT22;5826;54.756;9.192;2023-07-02T05:53:06;16.30;99.90
11540;DHT22;5826;54.756;9.192;2023-07-02T05:55:31;16.30;99.90
11540;DHT22;5826;54.756;9.192;2023-07-02T05:57:57;16.40;99.90
11540;DHT22;5826;54.756;9.192;2023-07-02T06:00:26;16.50;99.90
11540;DHT22;5826;54.756;9.192;2023-07-02T06:02:52;16.50;99.90
11540;DHT22;5826;54.756;9.192;2023-07-02T06:05:17;16.60;99.90
11540;DHT22;5826;54.756;9.192;2023-07-02T06:07:43;16.60;99.90
11540;DHT22;5826;54.756;9.192;2023-07-02T06:10:09;16.70;99.90
11540;DHT22;5826;54.756;9.192;2023-07-02T06:12:34;16.80;99.90
11540;DHT22;5826;54.756;9.192;2023-07-02T06:15:00;16.80;99.90
11540;DHT22;5826;54.756;9.192;2023-07-02T06:17:25;16.90;99.90
11540;DHT22;5826;54.756;9.192;2023-07-02T06:19:51;17.00;99.90
11540;DHT22;5826;54.756;9.192;2023-07-02T06:22:16;17.20;99.90
11540;DHT22;5826;54.756;9.192;2023-07-02T06:24:41;17.30;99.90
11540;DHT22;5826;54.756;9.192;2023-07-02T06:27:07;17.30;99.90
11540;DHT22;5826;54.756;9.192;2023-07-02T06:29:32;17.30;99.90
11540;DHT22;5826;54.756;9.192;2023-07-02T06:31:59;17.30;99.90
11540;DHT22;5826;54.756;9.192;2023-07-02T06:34:24;17.30;99.90
11540;DHT22;5826;54.756;9.192;2023-07-02T06:36:50;17.10;99.90
11540;DHT22;5826;54.756;9.192;2023-07-02T06:39:15;17.10;99.90
11540;DHT22;5826;54.756;9.192;2023-07-02T06:41:41;17.10;99.90
11540;DHT22;5826;54.756;9.192;2023-07-02T06:44:06;17.20;99.90
11540;DHT22;5826;54.756;9.192;2023-07-02T06:46:32;17.20;99.90
11540;DHT22;5826;54.756;9.192;2023-07-02T06:48:57;17.20;99.90
11540;DHT22;5826;54.756;9.192;2023-07-02T06:51:23;17.20;99.90
11540;DHT22;5826;54.756;9.192;2023-07-02T06:53:51;17.20;99.90
11540;DHT22;5826;54.756;9.192;2023-07-02T06:56:16;17.20;99.90
11540;DHT22;5826;54.756;9.192;2023-07-02T06:58:43;17.40;99.90
11540;DHT22;5826;54.756;9.192;2023-07-02T07:01:08;17.50;99.90
11540;DHT22;5826;54.756;9.192;2023-07-02T07:03:37;17.60;99.90
11540;DHT22;5826;54.756;9.192;2023-07-02T07:06:03;17.60;99.90
11540;DHT22;5826;54.756;9.192;2023-07-02T07:08:29;17.70;99.90
11540;DHT22;5826;54.756;9.192;2023-07-02T07:10:54;17.80;99.90
11540;DHT22;5826;54.756;9.192;2023-07-02T07:13:20;17.70;99.90
11540;DHT22;5826;54.756;9.192;2023-07-02T07:15:45;17.60;99.90
11540;DHT22;5826;54.756;9.192;2023-07-02T07:18:11;17.70;99.90
11540;DHT22;5826;54.756;9.192;2023-07-02T07:20:39;17.70;99.90
11540;DHT22;5826;54.756;9.192;2023-07-02T07:23:05;17.80;99.90
11540;DHT22;5826;54.756;9.192;2023-07-02T07:25:31;17.90;99.90
11540;DHT22;5826;54.756;9.192;2023-07-02T07:27:58;17.90;99.90
11540;DHT22;5826;54.756;9.192;2023-07-02T07:30:24;17.90;99.90
11540;DHT22;5826;54.756;9.192;2023-07-02T07:32:51;17.80;99.90
11540;DHT22;5826;54.756;9.192;2023-07-02T07:35:17;17.70;99.90
11540;DHT22;5826;54.756;9.192;2023-07-02T07:37:43;17.60;99.90
11540;DHT22;5826;54.756;9.192;2023-07-02T07:40:09;17.60;99.90
11540;DHT22;5826;54.756;9.192;2023-07-02T07:42:34;17.60;99.90
11540;DHT22;5826;54.756;9.192;2023-07-02T07:45:00;17.60;99.90
11540;DHT22;5826;54.756;9.192;2023-07-02T07:47:25;17.70;99.90
11540;DHT22;5826;54.756;9.192;2023-07-02T07:49:51;17.80;99.90
11540;DHT22;5826;54.756;9.192;2023-07-02T07:52:16;17.80;99.90
11540;DHT22;5826;54.756;9.192;2023-07-02T07:54:42;17.80;99.90
11540;DHT22;5826;54.756;9.192;2023-07-02T07:57:08;17.70;99.90
11540;DHT22;5826;54.756;9.192;2023-07-02T07:59:34;17.70;99.90
11540;DHT22;5826;54.756;9.192;2023-07-02T08:02:00;17.70;99.90
11540;DHT22;5826;54.756;9.192;2023-07-02T08:04:26;17.70;99.90
11540;DHT22;5826;54.756;9.192;2023-07-02T08:06:51;17.70;99.90
11540;DHT22;5826;54.756;9.192;2023-07-02T08:09:17;17.80;99.90
11540;DHT22;5826;54.756;9.192;2023-07-02T08:11:42;17.90;99.90
11540;DHT22;5826;54.756;9.192;2023-07-02T08:14:08;17.90;99.90
11540;DHT22;5826;54.756;9.192;2023-07-02T08:16:33;17.90;99.90
11540;DHT22;5826;54.756;9.192;2023-07-02T08:18:59;17.90;99.90
11540;DHT22;5826;54.756;9.192;2023-07-02T08:21:25;17.80;99.90
11540;DHT22;5826;54.756;9.192;2023-07-02T08:23:50;17.70;99.90
11540;DHT22;5826;54.756;9.192;2023-07-02T08:26:16;17.50;99.90
11540;DHT22;5826;54.756;9.192;2023-07-02T08:28:41;17.20;99.90
11540;DHT22;5826;54.756;9.192;2023-07-02T08:31:07;17.00;99.90
11540;DHT22;5826;54.756;9.192;2023-07-02T08:33:32;16.80;99.90
11540;DHT22;5826;54.756;9.192;2023-07-02T08:35:58;16.70;99.90
11540;DHT22;5826;54.756;9.192;2023-07-02T08:38:26;16.50;99.90
11540;DHT22;5826;54.756;9.192;2023-07-02T08:40:51;16.50;99.90
11540;DHT22;5826;54.756;9.192;2023-07-02T08:43:17;16.60;99.90
11540;DHT22;5826;54.756;9.192;2023-07-02T08:45:43;16.90;99.90
11540;DHT22;5826;54.756;9.192;2023-07-02T08:48:10;17.10;99.90
11540;DHT22;5826;54.756;9.192;2023-07-02T08:50:36;17.20;99.90
11540;DHT22;5826;54.756;9.192;2023-07-02T08:53:01;17.20;99.90
11540;DHT22;5826;54.756;9.192;2023-07-02T08:55:27;17.20;99.90
11540;DHT22;5826;54.756;9.192;2023-07-02T08:57:56;17.30;99.90
11540;DHT22;5826;54.756;9.192;2023-07-02T09:00:26;17.50;99.90
11540;DHT22;5826;54.756;9.192;2023-07-02T09:02:52;17.70;99.90
11540;DHT22;5826;54.756;9.192;2023-07-02T09:05:17;18.00;99.90
11540;DHT22;5826;54.756;9.192;2023-07-02T09:07:52;18.00;99.90
11540;DHT22;5826;54.756;9.192;2023-07-02T09:10:27;18.20;99.90
11540;DHT22;5826;54.756;9.192;2023-07-02T09:13:06;18.10;99.90
11540;DHT22;5826;54.756;9.192;2023-07-02T09:15:39;18.00;99.90
11540;DHT22;5826;54.756;9.192;2023-07-02T09:18:25;17.90;99.90
11540;DHT22;5826;54.756;9.192;2023-07-02T09:20:52;17.80;99.90
11540;DHT22;5826;54.756;9.192;2023-07-02T09:23:19;17.90;99.90
11540;DHT22;5826;54.756;9.192;2023-07-02T09:25:44;18.10;99.90
11540;DHT22;5826;54.756;9.192;2023-07-02T09:28:22;18.20;99.90
11540;DHT22;5826;54.756;9.192;2023-07-02T09:30:53;18.30;99.90
11540;DHT22;5826;54.756;9.192;2023-07-02T09:33:19;18.30;99.90
11540;DHT22;5826;54.756;9.192;2023-07-02T09:35:45;18.30;99.90
11540;DHT22;5826;54.756;9.192;2023-07-02T09:38:13;18.20;99.90
11540;DHT22;5826;54.756;9.192;2023-07-02T09:40:45;18.20;99.90
11540;DHT22;5826;54.756;9.192;2023-07-02T09:43:13;18.40;99.90
11540;DHT22;5826;54.756;9.192;2023-07-02T09:45:48;18.50;99.90
11540;DHT22;5826;54.756;9.192;2023-07-02T09:48:15;18.60;99.90
11540;DHT22;5826;54.756;9.192;2023-07-02T09:50:43;18.60;99.90
11540;DHT22;5826;54.756;9.192;2023-07-02T09:53:10;18.50;99.90
11540;DHT22;5826;54.756;9.192;2023-07-02T09:55:36;18.30;99.90
11540;DHT22;5826;54.756;9.192;2023-07-02T09:58:03;18.20;99.90
11540;DHT22;5826;54.756;9.192;2023-07-02T10:00:28;18.10;99.90
11540;DHT22;5826;54.756;9.192;2023-07-02T10:02:54;18.00;99.90
11540;DHT22;5826;54.756;9.192;2023-07-02T10:05:27;17.90;99.90
11540;DHT22;5826;54.756;9.192;2023-07-02T10:07:53;17.70;99.90
11540;DHT22;5826;54.756;9.192;2023-07-02T10:12:53;17.50;99.90
11540;DHT22;5826;54.756;9.192;2023-07-02T10:15:29;17.40;99.90
11540;DHT22;5826;54.756;9.192;2023-07-02T10:17:56;17.50;99.90
11540;DHT22;5826;54.756;9.192;2023-07-02T11:11:28;19.10;99.90
11540;DHT22;5826;54.756;9.192;2023-07-02T11:13:54;19.50;99.90
11540;DHT22;5826;54.756;9.192;2023-07-02T11:16:25;19.60;99.90
11540;DHT22;5826;54.756;9.192;2023-07-02T11:19:06;19.70;99.90
11540;DHT22;5826;54.756;9.192;2023-07-02T11:21:35;19.60;99.90
11540;DHT22;5826;54.756;9.192;2023-07-02T11:24:02;19.60;99.90
11540;DHT22;5826;54.756;9.192;2023-07-02T11:26:35;19.70;99.90
11540;DHT22;5826;54.756;9.192;2023-07-02T11:29:01;19.80;99.90
11540;DHT22;5826;54.756;9.192;2023-07-02T11:31:26;19.70;99.90
11540;DHT22;5826;54.756;9.192;2023-07-02T11:33:52;19.50;99.90
11540;DHT22;5826;54.756;9.192;2023-07-02T11:36:22;19.40;99.90
11540;DHT22;5826;54.756;9.192;2023-07-02T11:38:50;19.10;99.90
11540;DHT22;5826;54.756;9.192;2023-07-02T11:41:17;18.80;99.90
11540;DHT22;5826;54.756;9.192;2023-07-02T11:43:43;18.50;99.90
11540;DHT22;5826;54.756;9.192;2023-07-02T11:46:08;18.40;99.90
11540;DHT22;5826;54.756;9.192;2023-07-02T11:48:34;18.20;99.90
11540;DHT22;5826;54.756;9.192;2023-07-02T11:50:59;18.30;99.90
11540;DHT22;5826;54.756;9.192;2023-07-02T11:53:25;18.70;99.90
11540;DHT22;5826;54.756;9.192;2023-07-02T11:55:50;19.00;99.90
11540;DHT22;5826;54.756;9.192;2023-07-02T11:58:16;19.10;99.90
11540;DHT22;5826;54.756;9.192;2023-07-02T12:00:41;19.10;99.90
11540;DHT22;5826;54.756;9.192;2023-07-02T12:03:07;19.00;99.90
11540;DHT22;5826;54.756;9.192;2023-07-02T12:05:33;18.90;99.90
11540;DHT22;5826;54.756;9.192;2023-07-02T12:07:59;18.70;99.90
11540;DHT22;5826;54.756;9.192;2023-07-02T12:10:24;18.60;99.90
11540;DHT22;5826;54.756;9.192;2023-07-02T12:12:50;18.60;99.90
11540;DHT22;5826;54.756;9.192;2023-07-02T12:15:15;18.50;99.90
11540;DHT22;5826;54.756;9.192;2023-07-02T12:17:41;18.60;99.90
11540;DHT22;5826;54.756;9.192;2023-07-02T12:20:06;18.70;99.90
11540;DHT22;5826;54.756;9.192;2023-07-02T12:22:32;18.70;99.90
11540;DHT22;5826;54.756;9.192;2023-07-02T12:24:58;18.70;99.90
11540;DHT22;5826;54.756;9.192;2023-07-02T12:27:23;18.90;99.90
11540;DHT22;5826;54.756;9.192;2023-07-02T12:29:50;19.10;99.90
11540;DHT22;5826;54.756;9.192;2023-07-02T12:32:16;19.20;99.90
11540;DHT22;5826;54.756;9.192;2023-07-02T12:34:41;19.30;99.90
11540;DHT22;5826;54.756;9.192;2023-07-02T12:37:07;19.40;99.90
11540;DHT22;5826;54.756;9.192;2023-07-02T12:39:32;19.40;99.90
11540;DHT22;5826;54.756;9.192;2023-07-02T12:41:58;19.40;99.90
11540;DHT22;5826;54.756;9.192;2023-07-02T12:44:23;19.40;99.90
11540;DHT22;5826;54.756;9.192;2023-07-02T12:46:49;19.40;99.90
11540;DHT22;5826;54.756;9.192;2023-07-02T12:49:15;19.20;99.90
11540;DHT22;5826;54.756;9.192;2023-07-02T12:51:40;19.10;99.90
11540;DHT22;5826;54.756;9.192;2023-07-02T12:54:06;19.30;99.90
11540;DHT22;5826;54.756;9.192;2023-07-02T12:56:31;19.60;99.90
11540;DHT22;5826;54.756;9.192;2023-07-02T12:58:57;19.90;99.90
11540;DHT22;5826;54.756;9.192;2023-07-02T13:01:22;20.20;99.90
11540;DHT22;5826;54.756;9.192;2023-07-02T13:03:49;20.80;99.90
11540;DHT22;5826;54.756;9.192;2023-07-02T13:06:15;20.70;99.90
11540;DHT22;5826;54.756;9.192;2023-07-02T13:08:41;20.90;99.90
11540;DHT22;5826;54.756;9.192;2023-07-02T13:11:07;20.60;99.90
11540;DHT22;5826;54.756;9.192;2023-07-02T13:13:33;20.30;99.90
11540;DHT22;5826;54.756;9.192;2023-07-02T13:16:01;19.90;99.90
11540;DHT22;5826;54.756;9.192;2023-07-02T13:18:27;19.50;99.90
11540;DHT22;5826;54.756;9.192;2023-07-02T13:20:52;19.60;99.90
11540;DHT22;5826;54.756;9.192;2023-07-02T13:23:18;20.10;99.90
11540;DHT22;5826;54.756;9.192;2023-07-02T13:25:43;20.10;99.90
11540;DHT22;5826;54.756;9.192;2023-07-02T13:28:09;19.90;99.90
11540;DHT22;5826;54.756;9.192;2023-07-02T13:30:34;19.80;99.90
11540;DHT22;5826;54.756;9.192;2023-07-02T13:33:00;20.00;99.90
11540;DHT22;5826;54.756;9.192;2023-07-02T13:35:25;19.90;99.90
11540;DHT22;5826;54.756;9.192;2023-07-02T13:37:51;19.90;99.90
11540;DHT22;5826;54.756;9.192;2023-07-02T13:40:17;20.10;99.90
11540;DHT22;5826;54.756;9.192;2023-07-02T13:42:43;20.20;99.90
11540;DHT22;5826;54.756;9.192;2023-07-02T13:45:09;20.10;99.90
11540;DHT22;5826;54.756;9.192;2023-07-02T13:47:35;20.00;99.90
11540;DHT22;5826;54.756;9.192;2023-07-02T13:50:01;19.90;99.90
11540;DHT22;5826;54.756;9.192;2023-07-02T13:52:27;19.80;99.90
11540;DHT22;5826;54.756;9.192;2023-07-02T13:54:52;19.60;99.90
11540;DHT22;5826;54.756;9.192;2023-07-02T13:57:18;19.30;99.90
11540;DHT22;5826;54.756;9.192;2023-07-02T13:59:43;19.00;99.90
11540;DHT22;5826;54.756;9.192;2023-07-02T14:02:09;18.80;99.90
11540;DHT22;5826;54.756;9.192;2023-07-02T14:04:34;19.00;99.90
11540;DHT22;5826;54.756;9.192;2023-07-02T14:07:00;19.50;99.90
11540;DHT22;5826;54.756;9.192;2023-07-02T14:09:25;19.70;99.90
11540;DHT22;5826;54.756;9.192;2023-07-02T14:11:51;19.70;99.90
11540;DHT22;5826;54.756;9.192;2023-07-02T14:14:16;19.60;99.90
11540;DHT22;5826;54.756;9.192;2023-07-02T14:16:42;19.30;99.90
11540;DHT22;5826;54.756;9.192;2023-07-02T14:19:07;19.10;99.90
11540;DHT22;5826;54.756;9.192;2023-07-02T14:21:33;18.90;99.90
11540;DHT22;5826;54.756;9.192;2023-07-02T14:23:58;18.90;99.90
11540;DHT22;5826;54.756;9.192;2023-07-02T14:26:24;19.30;99.90
11540;DHT22;5826;54.756;9.192;2023-07-02T14:28:50;19.80;99.90
11540;DHT22;5826;54.756;9.192;2023-07-02T14:31:15;20.20;99.90
11540;DHT22;5826;54.756;9.192;2023-07-02T14:33:41;20.30;99.90
11540;DHT22;5826;54.756;9.192;2023-07-02T14:36:07;20.00;99.90
11540;DHT22;5826;54.756;9.192;2023-07-02T14:38:33;19.60;99.90
11540;DHT22;5826;54.756;9.192;2023-07-02T14:40:59;19.30;99.90
11540;DHT22;5826;54.756;9.192;2023-07-02T14:43:27;19.10;99.90
11540;DHT22;5826;54.756;9.192;2023-07-02T14:45:54;19.00;99.90
11540;DHT22;5826;54.756;9.192;2023-07-02T14:48:20;19.00;99.90
11540;DHT22;5826;54.756;9.192;2023-07-02T14:50:51;18.90;99.90
11540;DHT22;5826;54.756;9.192;2023-07-02T14:53:17;18.80;99.90
11540;DHT22;5826;54.756;9.192;2023-07-02T14:55:44;18.60;99.90
11540;DHT22;5826;54.756;9.192;2023-07-02T14:58:11;18.60;99.90
11540;DHT22;5826;54.756;9.192;2023-07-02T15:00:50;18.70;99.90
11540;DHT22;5826;54.756;9.192;2023-07-02T15:03:16;19.10;99.90
11540;DHT22;5826;54.756;9.192;2023-07-02T15:05:43;19.50;99.90
11540;DHT22;5826;54.756;9.192;2023-07-02T15:08:09;19.70;99.90
11540;DHT22;5826;54.756;9.192;2023-07-02T15:10:35;19.90;99.90
11540;DHT22;5826;54.756;9.192;2023-07-02T15:13:03;19.90;99.90
11540;DHT22;5826;54.756;9.192;2023-07-02T15:15:28;19.70;99.90
11540;DHT22;5826;54.756;9.192;2023-07-02T15:17:53;19.80;99.90
11540;DHT22;5826;54.756;9.192;2023-07-02T15:20:19;19.70;99.90
11540;DHT22;5826;54.756;9.192;2023-07-02T15:22:45;19.50;99.90
11540;DHT22;5826;54.756;9.192;2023-07-02T15:25:10;19.30;99.90
11540;DHT22;5826;54.756;9.192;2023-07-02T15:27:36;19.00;99.90
11540;DHT22;5826;54.756;9.192;2023-07-02T15:30:01;18.90;99.90
11540;DHT22;5826;54.756;9.192;2023-07-02T15:32:27;18.80;99.90
11540;DHT22;5826;54.756;9.192;2023-07-02T15:34:52;18.70;99.90
11540;DHT22;5826;54.756;9.192;2023-07-02T15:37:18;18.50;99.90
11540;DHT22;5826;54.756;9.192;2023-07-02T15:39:43;18.30;99.90
11540;DHT22;5826;54.756;9.192;2023-07-02T15:42:09;18.10;99.90
11540;DHT22;5826;54.756;9.192;2023-07-02T15:44:34;18.00;99.90
11540;DHT22;5826;54.756;9.192;2023-07-02T15:47:00;18.00;99.90
11540;DHT22;5826;54.756;9.192;2023-07-02T15:49:26;18.00;99.90
11540;DHT22;5826;54.756;9.192;2023-07-02T15:51:51;18.20;99.90
11540;DHT22;5826;54.756;9.192;2023-07-02T15:54:17;18.50;99.90
11540;DHT22;5826;54.756;9.192;2023-07-02T15:56:42;18.60;99.90
11540;DHT22;5826;54.756;9.192;2023-07-02T15:59:08;18.50;99.90
11540;DHT22;5826;54.756;9.192;2023-07-02T16:01:35;18.40;99.90
11540;DHT22;5826;54.756;9.192;2023-07-02T16:04:03;18.40;99.90
11540;DHT22;5826;54.756;9.192;2023-07-02T16:06:32;18.30;99.90
11540;DHT22;5826;54.756;9.192;2023-07-02T16:08:59;18.20;99.90
11540;DHT22;5826;54.756;9.192;2023-07-02T16:11:25;18.10;99.90
11540;DHT22;5826;54.756;9.192;2023-07-02T16:13:53;18.10;99.90
11540;DHT22;5826;54.756;9.192;2023-07-02T16:16:18;18.00;99.90
11540;DHT22;5826;54.756;9.192;2023-07-02T16:18:45;17.90;99.90
11540;DHT22;5826;54.756;9.192;2023-07-02T16:21:11;17.90;99.90
11540;DHT22;5826;54.756;9.192;2023-07-02T16:23:36;18.00;99.90
11540;DHT22;5826;54.756;9.192;2023-07-02T16:26:05;18.10;99.90
11540;DHT22;5826;54.756;9.192;2023-07-02T16:28:33;18.20;99.90
11540;DHT22;5826;54.756;9.192;2023-07-02T16:30:58;18.30;99.90
11540;DHT22;5826;54.756;9.192;2023-07-02T16:33:24;18.40;99.90